Latest Weather Observations for Paraburdoo

IDW60801

Issued at 11:32 am WST Wednesday 1 June 2016 (issued every 30 minutes, with the page automatically refreshed every 10 minutes)

About weather observations | Map of weather stations | Latest weather observations for WA | Other Formats
Station Details ID: 007185 Name: PARABURDOO AERO Lat: -23.17 Lon: 117.75 Height: 423.7 m
Data from the previous 72 hours. | See also: Recent months at Paraburdoo
Date/Time
WST
Temp
°C
App
Temp
°C
Dew
Point
Rel
Hum
%
Delta-T
°C
Wind Press
QNH
hPa
Press
MSL
hPa
Rain
since 9 am
mm
Dir
 
Spd
km/h
Gust
km/h
Spd
kts
Gust
kts
01/11:30am 26.1 23.8 4.6 25 11.1 ENE 6 11 3 6 1016.1 1014.8 0.0
01/11:00am 25.5 22.7 5.1 27 10.5 ENE 9 13 5 7 1016.3 1015.1 0.0
01/10:30am 23.8 21.3 4.7 29 9.7 ESE 7 15 4 8 1016.8 1015.6 0.0
01/10:00am 22.6 19.2 4.2 30 9.2 NE 11 15 6 8 1017.0 1015.8 0.0
01/09:30am 21.6 19.1 3.8 31 8.8 NE 6 9 3 5 1017.5 1016.3 0.0
01/09:00am 20.3 17.8 3.5 33 8.1 NE 6 9 3 5 1017.5 1016.3 0.0
01/08:30am 18.6 16.1 3.6 37 7.2 NE 6 7 3 4 1017.5 1016.3 0.0
01/08:00am 16.7 13.9 3.1 40 6.4 ENE 7 9 4 5 1017.0 1015.8 0.0
01/07:30am 14.0 11.0 2.3 45 5.3 E 7 9 4 5 1016.9 1015.0 0.0
01/07:00am 11.1 7.6 1.4 51 4.2 E 9 11 5 6 1016.8 1014.9 0.0
01/06:30am 9.9 6.4 1.0 54 3.8 E 9 9 5 5 1016.6 1014.7 0.0
01/06:00am 10.6 7.0 0.9 51 4.1 ENE 9 11 5 6 1016.5 1014.6 0.0
01/05:30am 11.0 7.5 1.0 50 4.3 ENE 9 11 5 6 1016.2 1014.3 0.0
01/05:00am 11.7 8.2 1.4 49 4.5 NE 9 9 5 5 1016.1 1014.2 0.0
01/04:30am 12.4 8.9 1.1 46 4.9 ENE 9 11 5 6 1015.8 1014.0 0.0
01/04:00am 12.1 8.1 0.8 46 4.8 E 11 13 6 7 1015.9 1014.1 0.0
01/03:30am 12.1 9.0 1.1 47 4.7 ENE 7 7 4 4 1016.1 1014.2 0.0
01/03:00am 12.3 9.7 1.0 46 4.9 NE 4 7 2 4 1015.9 1014.1 0.0
01/02:30am 13.7 10.8 1.4 43 5.4 E 6 9 3 5 1015.8 1014.0 0.0
01/02:00am 14.0 10.9 1.3 42 5.6 ENE 7 9 4 5 1016.1 1014.2 0.0
01/01:30am 13.9 12.1 1.2 42 5.6 CALM 0 0 0 0 1016.3 1014.4 0.0
01/01:00am 13.6 11.5 1.6 44 5.3 NW 2 7 1 4 1016.3 1014.4 0.0
01/12:30am 14.3 11.1 0.9 40 5.9 NNW 7 7 4 4 1016.5 1014.6 0.0
01/12:00am 14.8 13.0 1.0 39 6.1 CALM 0 0 0 0 1016.5 1014.6 0.0
 
Date/Time
WST
Temp
°C
App
Temp
°C
Dew
Point
Rel
Hum
%
Delta-T
°C
Wind Press
QNH
hPa
Press
MSL
hPa
Rain
since 9 am
mm
Dir
 
Spd
km/h
Gust
km/h
Spd
kts
Gust
kts
31/11:30pm 17.0 13.4 0.6 33 7.3 NW 9 13 5 7 1016.6 1014.7 0.0
31/11:00pm 17.1 14.0 1.5 35 7.1 N 7 9 4 5 1016.8 1014.9 0.0
31/10:30pm 16.8 13.3 1.3 35 7.0 NE 9 11 5 6 1016.7 1014.8 0.0
31/10:00pm 17.4 14.4 1.0 33 7.4 NNW 6 7 3 4 1016.5 1014.6 0.0
31/09:30pm 18.1 14.6 1.2 32 7.7 NE 9 11 5 6 1016.5 1014.6 0.0
31/09:00pm 19.1 16.0 1.6 31 8.1 NNE 7 9 4 5 1016.2 1014.3 0.0
31/08:30pm 20.5 17.4 1.4 28 8.9 NNE 7 9 4 5 1016.1 1014.2 0.0
31/08:00pm 20.1 17.2 1.5 29 8.7 ESE 6 11 3 6 1015.7 1013.9 0.0
31/07:30pm 21.5 19.5 2.2 28 9.2 WSW 2 6 1 3 1015.6 1013.8 0.0
31/07:00pm 23.4 20.4 1.7 24 10.4 WSW 7 9 4 5 1015.3 1013.5 0.0
31/06:30pm 24.7 20.9 1.6 22 11.2 WSW 11 13 6 7 1015.1 1013.3 0.0
31/06:00pm 25.7 22.3 1.8 21 11.7 SW 9 11 5 6 1014.7 1012.8 0.0
31/05:30pm 27.2 23.8 1.6 19 12.6 WSW 9 13 5 7 1014.2 1012.3 0.0
31/05:00pm 28.2 24.0 1.7 18 13.1 SW 13 15 7 8 1014.0 1012.1 0.0
31/04:30pm 28.5 24.7 1.9 18 13.3 WSW 11 15 6 8 1013.8 1011.9 0.0
31/04:00pm 28.9 25.2 2.2 18 13.4 SW 11 17 6 9 1013.7 1011.8 0.0
31/03:30pm 29.0 24.5 2.3 18 13.4 WSW 15 20 8 11 1013.7 1011.8 0.0
31/03:00pm 28.5 25.5 1.1 17 13.5 ESE 6 9 3 5 1013.6 1011.7 0.0
31/02:30pm 28.0 24.5 1.5 18 13.1 WSW 9 17 5 9 1013.6 1011.7 0.0
31/02:00pm 28.2 24.0 1.7 18 13.1 WSW 13 19 7 10 1013.9 1012.0 0.0
31/01:30pm 27.8 24.1 2.1 19 12.8 W 11 19 6 10 1014.1 1012.2 0.0
31/01:00pm 27.5 23.9 0.3 17 13.1 WNW 9 17 5 9 1014.4 1012.5 0.0
31/12:30pm 27.1 23.6 1.5 19 12.6 WSW 9 17 5 9 1014.9 1013.1 0.0
31/12:00pm 27.0 23.4 2.8 21 12.1 W 11 19 6 10 1015.4 1013.6 0.0
31/11:30am 25.9 22.8 3.8 24 11.2 WNW 9 13 5 7 1015.7 1013.9 0.0
31/11:00am 24.9 21.8 3.5 25 10.7 W 9 13 5 7 1016.1 1014.2 0.0
31/10:30am 23.8 21.0 3.2 26 10.2 W 7 11 4 6 1016.5 1014.6 0.0
31/10:00am 23.0 20.7 3.0 27 9.8 W 4 9 2 5 1016.8 1014.9 0.0
31/09:30am 22.0 19.2 3.2 29 9.2 WNW 7 9 4 5 1017.0 1015.2 0.0
31/09:00am 21.0 19.1 2.8 30 8.7 NNW 2 7 1 4 1016.8 1014.9 0.0
31/08:30am 19.4 16.5 2.7 33 7.9 NE 7 7 4 4 1016.4 1014.5 0.0
31/08:00am 17.3 14.3 2.1 36 7.0 E 7 9 4 5 1016.2 1014.3 0.0
31/07:30am 13.5 10.9 1.2 43 5.4 E 4 6 2 3 1016.1 1014.2 0.0
31/07:00am 11.3 7.7 0.7 48 4.5 E 9 9 5 5 1015.5 1013.7 0.0
31/06:30am 11.5 7.9 0.6 47 4.6 ENE 9 11 5 6 1015.3 1013.5 0.0
31/06:00am 11.8 8.2 0.9 47 4.7 NE 9 9 5 5 1015.2 1013.4 0.0
31/05:30am 12.3 8.7 0.7 45 5.0 ENE 9 11 5 6 1014.9 1013.1 0.0
31/05:00am 12.2 9.0 0.6 45 5.0 ENE 7 9 4 5 1014.7 1012.8 0.0
31/04:30am 11.9 8.7 0.7 46 4.8 ENE 7 7 4 4 1014.6 1012.7 0.0
31/04:00am 12.9 9.8 0.0 41 5.5 NE 6 7 3 4 1014.4 1012.5 0.0
31/03:30am 14.0 10.4 0.3 39 5.9 ENE 9 11 5 6 1014.5 1012.6 0.0
31/03:00am 14.5 10.8 0.0 37 6.2 E 9 13 5 7 1014.6 1012.7 0.0
31/02:30am 14.5 11.3 0.7 39 6.0 E 7 9 4 5 1014.8 1012.9 0.0
31/02:00am 14.7 12.9 0.9 39 6.1 CALM 0 0 0 0 1014.9 1013.1 0.0
31/01:30am 16.3 13.0 0.4 34 7.0 NNE 7 7 4 4 1015.1 1013.3 0.0
31/01:00am 17.3 14.1 0.9 33 7.4 NE 7 7 4 4 1015.2 1013.4 0.0
31/12:30am 18.1 14.9 0.7 31 7.9 NE 7 9 4 5 1015.1 1013.3 0.0
31/12:00am 18.2 16.4 1.3 32 7.7 CALM 0 0 0 0 1015.2 1013.4 0.0
 
Date/Time
WST
Temp
°C
App
Temp
°C
Dew
Point
Rel
Hum
%
Delta-T
°C
Wind Press
QNH
hPa
Press
MSL
hPa
Rain
since 9 am
mm
Dir
 
Spd
km/h
Gust
km/h
Spd
kts
Gust
kts
30/11:30pm 18.2 15.1 0.4 30 8.0 NE 6 7 3 4 1015.3 1013.5 0.0
30/11:00pm 19.2 16.2 0.8 29 8.4 NE 6 9 3 5 1015.5 1013.7 0.0
30/10:30pm 18.5 15.5 0.6 30 8.1 E 6 7 3 4 1015.4 1013.6 0.0
30/10:00pm 18.7 15.5 0.8 30 8.1 E 7 9 4 5 1015.4 1013.6 0.0
30/09:30pm 19.7 16.4 0.2 27 8.8 NW 7 9 4 5 1015.5 1013.7 0.0
30/09:00pm 21.0 17.3 0.2 25 9.5 NW 9 11 5 6 1015.4 1013.6 0.0
30/08:30pm 21.4 17.6 -0.6 23 9.9 NW 9 11 5 6 1015.3 1013.5 0.0
30/08:00pm 21.7 19.7 -0.3 23 10.0 CALM 0 0 0 0 1014.9 1013.1 0.0
30/07:30pm 22.2 20.1 -1.1 21 10.5 CALM 0 0 0 0 1014.6 1012.7 0.0
30/07:00pm 24.2 20.7 -1.6 18 11.7 SW 7 9 4 5 1014.2 1012.3 0.0
30/06:30pm 25.2 21.2 -2.4 16 12.4 SW 9 11 5 6 1013.9 1012.0 0.0
30/06:00pm 26.2 21.8 -2.4 15 13.0 SW 11 13 6 7 1013.6 1011.7 0.0
30/05:30pm 27.3 22.5 -2.5 14 13.6 SW 13 19 7 10 1013.2 1011.4 0.0
30/05:00pm 28.1 22.4 -0.9 15 13.7 WSW 19 22 10 12 1013.0 1011.2 0.0
30/04:30pm 29.0 23.9 0.7 16 13.9 WNW 17 22 9 12 1012.6 1010.7 0.0
30/04:00pm 29.1 23.1 -7.0 9 15.5 WNW 17 22 9 12 1012.6 1010.7 0.0
30/03:30pm 29.4 22.8 -6.7 9 15.6 WNW 20 28 11 15 1012.4 1010.5 0.0
30/03:00pm 29.0 23.1 -5.7 10 15.2 W 17 24 9 13 1012.2 1010.3 0.0
30/02:30pm 29.3 23.5 -4.2 11 15.1 WNW 17 24 9 13 1012.0 1010.1 0.0
30/02:00pm 29.7 23.7 -2.7 12 15.0 NW 19 32 10 17 1012.1 1010.2 0.0
30/01:30pm 28.8 23.4 -1.3 14 14.2 WNW 17 24 9 13 1012.4 1010.5 0.0
30/01:00pm 28.3 24.6 2.5 19 13.0 WNW 11 19 6 10 1012.8 1011.0 0.0
30/12:30pm 27.6 23.8 4.0 22 12.1 WSW 13 22 7 12 1013.2 1011.4 0.0
30/12:00pm 27.1 23.4 4.2 23 11.8 WNW 13 20 7 11 1013.8 1011.9 0.0
30/11:30am 26.4 23.9 6.4 28 10.6 W 9 13 5 7 1014.4 1012.5 0.0
30/11:00am 25.1 21.8 6.3 30 9.9 WNW 13 17 7 9 1014.8 1012.9 0.0
30/10:30am 24.7 23.2 6.9 32 9.5 NW 4 11 2 6 1015.4 1013.6 0.0
30/10:00am 23.6 22.6 7.3 35 8.7 NW 2 9 1 5 1015.5 1013.7 0.0
30/09:30am 22.9 20.9 7.1 36 8.3 ENE 7 11 4 6 1015.4 1013.6 0.0
30/09:00am 20.8 18.3 6.7 40 7.3 NE 9 11 5 6 1015.2 1013.4 0.0
30/08:30am 18.9 16.8 6.7 45 6.2 ENE 7 9 4 5 1015.1 1013.3 0.0
30/08:00am 16.2 15.0 6.3 52 4.9 E 2 7 1 4 1015.2 1013.4 0.0
30/07:30am 14.8 12.3 6.4 57 4.2 NNE 9 11 5 6 1014.9 1013.1 0.0
30/07:00am 12.9 10.7 5.3 60 3.6 NNE 6 7 3 4 1014.6 1012.7 0.0
30/06:30am 12.8 10.4 5.2 60 3.6 NE 7 9 4 5 1014.6 1012.7 0.0
30/06:00am 13.6 10.8 5.0 56 4.1 NE 9 11 5 6 1014.1 1012.2 0.0
30/05:30am 13.0 11.2 5.2 59 3.7 SSE 4 9 2 5 1014.0 1012.1 0.0
30/05:00am 12.5 10.0 5.0 60 3.5 NE 7 9 4 5 1014.0 1012.1 0.0
30/04:30am 13.2 10.3 4.9 57 3.9 NE 9 11 5 6 1013.7 1011.8 0.0
30/04:00am 13.2 10.7 4.9 57 3.9 ENE 7 9 4 5 1013.9 1012.0 0.0
30/03:30am 14.9 11.5 5.7 54 4.5 NE 13 15 7 8 1013.8 1011.9 0.0
30/03:00am 14.8 12.5 4.8 51 4.8 N 6 9 3 5 1014.1 1012.2 0.0
30/02:30am 15.3 12.8 5.0 50 5.0 ENE 7 9 4 5 1014.1 1012.2 0.0
30/02:00am 14.3 12.0 4.9 53 4.5 ESE 6 9 3 5 1014.3 1012.4 0.0
30/01:30am 14.3 11.8 4.9 53 4.5 ENE 7 9 4 5 1014.6 1012.7 0.0
30/01:00am 14.5 12.2 4.8 52 4.6 E 6 7 3 4 1014.8 1012.9 0.0
30/12:30am 16.1 12.8 4.5 46 5.6 NE 11 11 6 6 1014.7 1012.8 0.0
30/12:00am 16.9 14.4 4.9 45 5.8 NNE 7 9 4 5 1015.1 1013.3 0.0
 
Date/Time
WST
Temp
°C
App
Temp
°C
Dew
Point
Rel
Hum
%
Delta-T
°C
Wind Press
QNH
hPa
Press
MSL
hPa
Rain
since 9 am
mm
Dir
 
Spd
km/h
Gust
km/h
Spd
kts
Gust
kts
29/11:30pm 17.2 14.3 4.5 43 6.1 NE 9 11 5 6 1015.1 1013.3 0.0
29/11:00pm 17.6 16.4 4.6 42 6.3 CALM 0 0 0 0 1015.3 1013.5 0.0
29/10:30pm 18.8 15.9 4.6 39 7.0 NNE 9 13 5 7 1015.4 1013.6 0.0
29/10:00pm 20.4 18.0 5.2 37 7.6 NE 7 11 4 6 1015.3 1013.5 0.0
29/09:30pm 21.2 18.8 5.1 35 8.1 ENE 7 9 4 5 1015.4 1013.6 0.0
29/09:00pm 22.7 20.0 5.6 33 8.8 SSE 9 13 5 7 1015.5 1013.7 0.0
29/08:30pm 23.1 20.0 5.5 32 9.0 S 11 15 6 8 1015.5 1013.7 0.0
29/08:00pm 23.3 19.7 5.2 31 9.3 S 13 19 7 10 1015.1 1013.3 0.0
29/07:30pm 23.5 20.3 4.9 30 9.5 S 11 17 6 9 1014.7 1012.8 0.0
29/07:00pm 24.1 20.9 5.0 29 9.8 S 11 17 6 9 1014.6 1012.7 0.0
29/06:30pm 24.8 21.0 5.6 29 10.0 S 15 19 8 10 1014.3 1012.4 0.0
29/06:00pm 25.2 21.8 5.9 29 10.1 S 13 17 7 9 1013.7 1011.8 0.0
29/05:30pm 26.1 22.7 5.7 27 10.7 S 13 17 7 9 1013.3 1011.5 0.0
29/05:00pm 27.8 24.8 4.2 22 12.2 SW 9 13 5 7 1013.3 1011.5 0.0
29/04:30pm 27.8 25.1 3.5 21 12.4 SW 7 11 4 6 1013.3 1011.5 0.0
29/04:00pm 28.1 25.4 3.7 21 12.5 NNW 7 9 4 5 1013.1 1011.3 0.0
29/03:30pm 28.1 25.6 3.7 21 12.5 SSW 6 9 3 5 1013.1 1011.3 0.0
29/03:00pm 27.7 25.4 5.9 25 11.6 SW 7 19 4 10 1013.1 1011.3 0.0
29/02:30pm 27.8 25.3 6.6 26 11.4 NE 9 13 5 7 1013.0 1011.2 0.0
29/02:00pm 27.7 26.2 7.0 27 11.2 NNE 4 11 2 6 1013.1 1011.3 0.0
29/01:30pm 27.6 26.3 7.5 28 11.0 N 4 7 2 4 1013.6 1011.7 0.0
29/01:00pm 26.3 24.4 7.4 30 10.2 N 7 13 4 7 1014.0 1012.1 0.0
29/12:30pm 26.5 25.0 8.5 32 9.9 SSW 6 13 3 7 1014.5 1012.6 0.0
29/12:00pm 25.8 23.7 8.3 33 9.6 ENE 9 13 5 7 1015.1 1013.3 0.0

Other Formats:

Comma delimited format used in spreadsheet applications
http://www.bom.gov.au/fwo/IDW60801/IDW60801.94316.axf

JavaScript Object Notation format (JSON) in row-major order
http://www.bom.gov.au/fwo/IDW60801/IDW60801.94316.json